Time;durP1;ratioP1;P1;durP2;ratioP2;P2;SDS_P1;SDS_P2;PMS_P1;PMS_P2;Temp;Humidity;BMP_temperature;BMP_pressure;BME280_temperature;BME280_humidity;BME280_pressure;Samples;Min_cycle;Max_cycle;Signal;HPM_P1;HPM_P2
2022/02/06 00:01:53;;;;;;;5.30;1.02;;;;;;;7.86;78.28;99332.50;5001851;28;20045;-61
2022/02/06 00:04:19;;;;;;;4.57;0.70;;;;;;;7.86;78.88;99325.63;5002898;28;20045;-61
2022/02/06 00:06:46;;;;;;;5.07;1.00;;;;;;;7.87;78.96;99319.59;5006765;28;20042;-61
2022/02/06 00:09:13;;;;;;;3.20;1.08;;;;;;;7.88;78.23;99317.88;5004498;28;20058;-61
2022/02/06 00:11:39;;;;;;;4.47;0.77;;;;;;;7.85;78.37;99316.16;5003733;28;20073;-61
2022/02/06 00:14:06;;;;;;;5.18;1.50;;;;;;;7.87;78.57;99314.44;5002626;28;20104;-63
2022/02/06 00:16:33;;;;;;;4.43;1.05;;;;;;;7.88;77.89;99300.69;5004324;28;20486;-61
2022/02/06 00:18:59;;;;;;;3.10;0.70;;;;;;;7.90;78.35;99291.22;5004376;28;20790;-60
2022/02/06 00:21:26;;;;;;;6.22;0.90;;;;;;;7.89;78.90;99289.50;5006399;28;20062;-62
2022/02/06 00:23:54;;;;;;;5.28;1.63;;;;;;;7.90;79.14;99283.47;5004788;28;20434;-60
2022/02/06 00:26:43;;;;;;;2.50;0.80;;;;;;;7.88;78.60;99276.63;5003096;28;20576;-61
2022/02/06 00:29:19;;;;;;;3.22;0.45;;;;;;;7.87;79.32;99283.50;5006634;28;20088;-61
2022/02/06 00:31:52;;;;;;;3.72;0.85;;;;;;;7.88;78.73;99274.91;5002009;28;20081;-62
2022/02/06 00:34:45;;;;;;;3.78;0.70;;;;;;;7.90;79.12;99283.47;5002392;28;20112;-62
2022/02/06 00:40:04;;;;;;;4.15;1.48;;;;;;;7.86;78.80;99263.75;5017027;28;20053;-60
2022/02/06 00:42:31;;;;;;;2.35;0.82;;;;;;;7.90;77.82;99275.75;5004632;28;20049;-61
2022/02/06 00:44:57;;;;;;;4.68;0.73;;;;;;;7.90;78.21;99262.03;5003016;28;20077;-61
2022/02/06 00:47:26;;;;;;;2.78;0.63;;;;;;;7.88;79.19;99259.44;5004580;28;20062;-61
2022/02/06 00:49:53;;;;;;;2.80;0.55;;;;;;;7.91;79.20;99253.41;5005868;28;20050;-62
2022/02/06 00:52:26;;;;;;;2.78;0.98;;;;;;;7.89;78.14;99266.31;5008463;28;20050;-60
2022/02/06 00:54:53;;;;;;;2.63;0.65;;;;;;;7.87;78.48;99252.56;5007388;28;20112;-62
2022/02/06 00:57:20;;;;;;;2.67;0.68;;;;;;;7.86;79.21;99250.84;5011268;28;20073;-59
2022/02/06 00:59:46;;;;;;;1.48;0.40;;;;;;;7.89;79.24;99240.53;5006160;28;20050;-61
2022/02/06 01:02:13;;;;;;;3.50;0.63;;;;;;;7.90;78.99;99247.38;5004450;28;20112;-62
2022/02/06 01:04:40;;;;;;;5.78;0.68;;;;;;;7.89;79.09;99245.69;5009307;28;20078;-61
2022/02/06 01:07:06;;;;;;;2.60;0.52;;;;;;;7.89;79.00;99243.09;5006108;28;20089;-60
2022/02/06 01:09:33;;;;;;;2.63;1.13;;;;;;;7.89;78.66;99232.78;5007062;28;20050;-61
2022/02/06 01:12:00;;;;;;;3.80;1.02;;;;;;;7.87;78.30;99218.19;5006020;28;20088;-62
2022/02/06 01:14:43;;;;;;;3.28;0.60;;;;;;;7.88;78.66;99210.47;5004911;28;20054;-61
2022/02/06 01:17:23;;;;;;;2.60;1.02;;;;;;;7.88;79.58;99210.47;5008059;28;20046;-62
2022/02/06 01:19:59;;;;;;;4.07;0.98;;;;;;;7.85;79.18;99228.50;5005343;28;20045;-61
2022/02/06 01:22:29;;;;;;;4.93;1.13;;;;;;;7.86;78.45;99214.75;5009109;28;20061;-60
2022/02/06 01:25:04;;;;;;;7.72;1.13;;;;;;;7.90;78.10;99221.59;5008584;28;20054;-62
2022/02/06 01:27:39;;;;;;;3.10;0.30;;;;;;;7.90;78.47;99237.06;5008670;28;20422;-61
2022/02/06 01:30:15;;;;;;;3.75;1.08;;;;;;;7.90;78.18;99213.88;5007342;28;20072;-61
2022/02/06 01:32:50;;;;;;;5.30;0.75;;;;;;;7.91;78.28;99213.00;5005944;28;20068;-60
2022/02/06 01:35:25;;;;;;;1.83;0.40;;;;;;;7.91;79.09;99213.00;5008956;28;20115;-61
2022/02/06 01:38:07;;;;;;;5.45;1.25;;;;;;;7.94;79.02;99202.66;5005750;28;20112;-62
2022/02/06 01:40:43;;;;;;;5.10;1.05;;;;;;;7.96;78.76;99200.94;5004877;28;20771;-61
2022/02/06 01:43:17;;;;;;;4.32;0.98;;;;;;;7.94;78.10;99205.25;5006616;28;20145;-60
2022/02/06 02:02:49;;;;;;;3.33;0.63;;;;;;;7.94;79.54;99166.56;5020071;28;20195;-62
2022/02/06 02:05:47;;;;;;;3.42;0.63;;;;;;;7.93;78.71;99159.72;5016682;28;20049;-62
2022/02/06 02:11:06;;;;;;;2.75;0.55;;;;;;;7.94;78.80;99165.72;5006830;28;20046;-58
2022/02/06 02:27:47;;;;;;;3.53;0.90;;;;;;;7.95;79.04;99119.31;5020391;28;20050;-62
2022/02/06 02:44:54;;;;;;;2.47;0.47;;;;;;;7.94;78.52;99107.25;5019810;28;20096;-61
2022/02/06 02:47:11;;;;;;;2.08;0.38;;;;;;;7.97;78.28;99103.81;5008723;28;20144;-62
2022/02/06 02:49:39;;;;;;;2.33;0.63;;;;;;;7.97;79.15;99089.19;5006701;28;20116;-60
2022/02/06 02:52:13;;;;;;;0.93;0.50;;;;;;;7.98;78.72;99085.75;5007940;28;20050;-60
2022/02/06 02:54:42;;;;;;;3.00;0.65;;;;;;;7.96;78.56;99072.03;5003481;28;20058;-60
2022/02/06 02:57:21;;;;;;;5.55;0.38;;;;;;;7.95;79.91;99085.78;5008027;28;20104;-62
2022/02/06 03:00:20;;;;;;;2.10;0.32;;;;;;;7.97;78.92;99066.00;5008987;28;20049;-60
2022/02/06 03:02:37;;;;;;;4.15;0.52;;;;;;;7.97;79.09;99068.56;5016542;28;20050;-60
2022/02/06 03:05:05;;;;;;;3.67;0.75;;;;;;;7.97;78.49;99068.56;5004949;28;20100;-61
2022/02/06 03:07:31;;;;;;;1.23;0.55;;;;;;;7.96;78.76;99051.38;5007179;28;20046;-61
2022/02/06 03:09:59;;;;;;;4.45;0.82;;;;;;;7.98;78.36;99054.78;5012240;28;20092;-60
2022/02/06 03:12:28;;;;;;;2.40;0.60;;;;;;;7.97;79.28;99026.44;5007458;28;20050;-61
2022/02/06 03:15:05;;;;;;;1.73;0.40;;;;;;;7.95;78.53;99023.91;5007962;28;20058;-60
2022/02/06 03:17:36;;;;;;;3.75;1.15;;;;;;;7.93;78.41;99020.47;5007481;28;20045;-62
2022/02/06 03:20:09;;;;;;;;;;;;;;;7.88;78.38;99017.09;5005083;28;20089;-61
2022/02/06 03:22:48;;;;;;;4.80;0.63;;;;;;;7.93;78.52;99022.19;5003748;28;19929;-60
2022/02/06 03:25:19;;;;;;;3.72;1.05;;;;;;;7.94;79.01;99017.00;5007557;28;20092;-61
2022/02/06 03:27:47;;;;;;;3.88;0.60;;;;;;;7.92;79.08;99008.47;5006868;28;20046;-63
2022/02/06 03:30:14;;;;;;;2.38;0.63;;;;;;;7.93;78.72;98999.84;5004356;28;20238;-61
2022/02/06 03:32:41;;;;;;;3.35;0.45;;;;;;;7.90;78.38;98988.72;5005962;28;20054;-60
2022/02/06 03:35:08;;;;;;;1.52;0.57;;;;;;;7.92;78.68;98986.97;5007562;28;20108;-61
2022/02/06 03:37:34;;;;;;;3.17;0.50;;;;;;;7.93;79.09;98966.31;5004636;28;20053;-62
2022/02/06 03:40:05;;;;;;;2.45;0.40;;;;;;;7.94;79.39;98957.72;5008963;28;20561;-59
2022/02/06 03:42:43;;;;;;;3.15;0.40;;;;;;;7.94;78.74;98949.97;5004626;28;20050;-60
2022/02/06 03:45:17;;;;;;;3.08;0.50;;;;;;;7.94;78.23;98929.34;5009707;28;20065;-61
2022/02/06 03:47:51;;;;;;;3.70;0.35;;;;;;;7.96;78.41;98916.44;5005862;28;20650;-60
2022/02/06 03:50:18;;;;;;;2.78;0.88;;;;;;;7.96;79.44;98912.16;5003734;28;20078;-60
2022/02/06 03:52:51;;;;;;;3.85;0.32;;;;;;;7.94;79.05;98919.03;5005412;28;20100;-62
2022/02/06 03:55:19;;;;;;;3.17;0.50;;;;;;;7.94;78.35;98919.03;5001991;28;20057;-59
2022/02/06 03:57:48;;;;;;;1.45;0.70;;;;;;;7.97;79.00;98898.38;5012207;28;20092;-61
2022/02/06 04:00:16;;;;;;;2.00;0.50;;;;;;;7.97;79.46;98906.13;5002992;28;20054;-61
2022/02/06 04:02:43;;;;;;;2.97;0.55;;;;;;;8.00;79.09;98896.66;5006349;28;20042;-62
2022/02/06 04:05:10;;;;;;;3.45;0.60;;;;;;;8.01;78.55;98888.03;5003480;28;20100;-62
2022/02/06 04:07:37;;;;;;;4.95;0.50;;;;;;;8.03;78.98;98876.84;5003375;28;20049;-62
2022/02/06 04:10:05;;;;;;;2.50;0.30;;;;;;;8.03;79.19;98860.50;5005056;28;20100;-60
2022/02/06 04:12:31;;;;;;;2.55;0.52;;;;;;;8.01;79.70;98857.09;5003766;28;20491;-61
2022/02/06 04:15:03;;;;;;;5.32;0.47;;;;;;;8.01;78.50;98865.69;5005393;28;20099;-62
2022/02/06 04:17:36;;;;;;;3.10;0.50;;;;;;;8.04;78.89;98863.06;5003372;28;20095;-62
2022/02/06 04:20:04;;;;;;;3.75;0.40;;;;;;;8.05;79.07;98853.59;5003498;28;20062;-61
2022/02/06 04:22:31;;;;;;;1.63;0.55;;;;;;;8.04;78.82;98852.75;5005151;28;20042;-60
2022/02/06 04:24:58;;;;;;;1.45;0.65;;;;;;;8.06;78.35;98845.84;5004470;28;20494;-60
2022/02/06 04:27:24;;;;;;;1.85;0.43;;;;;;;8.08;78.81;98853.56;5009335;28;20084;-59
2022/02/06 04:29:53;;;;;;;2.20;0.40;;;;;;;8.08;78.58;98844.09;5000840;28;20068;-60
2022/02/06 04:32:21;;;;;;;4.63;1.33;;;;;;;8.13;79.42;98826.00;5009177;28;20402;-61
2022/02/06 04:34:49;;;;;;;4.20;0.40;;;;;;;8.11;79.35;98814.88;5004347;28;20057;-60
2022/02/06 04:40:12;;;;;;;3.78;0.60;;;;;;;8.13;79.15;98818.25;5014622;28;20635;-60
2022/02/06 04:46:02;;;;;;;3.33;0.52;;;;;;;8.11;79.48;98807.13;5005339;28;20057;-59
2022/02/06 04:51:31;;;;;;;2.70;0.50;;;;;;;8.12;79.28;98785.63;4996309;28;20058;-63
2022/02/06 05:13:46;;;;;;;3.80;0.57;;;;;;;8.23;80.28;98741.59;4999920;28;20505;-61
2022/02/06 05:21:57;;;;;;;5.75;0.75;;;;;;;8.25;80.39;98705.47;5004205;28;20050;-62
2022/02/06 05:24:44;;;;;;;1.35;1.15;;;;;;;8.28;80.56;98706.28;5021031;28;20452;-62
2022/02/06 05:27:20;;;;;;;3.35;0.70;;;;;;;8.28;79.82;98711.44;5004115;28;20100;-62
2022/02/06 05:30:00;;;;;;;1.17;0.55;;;;;;;8.27;80.01;98701.16;5003500;28;20108;-61
2022/02/06 05:35:13;;;;;;;4.13;0.55;;;;;;;8.30;80.37;98693.34;5001214;28;20491;-61
2022/02/06 05:37:40;;;;;;;6.07;0.93;;;;;;;8.31;80.79;98688.16;5003420;28;20076;-62
2022/02/06 05:40:07;;;;;;;3.33;1.25;;;;;;;8.32;80.86;98686.47;5006146;28;20438;-63
2022/02/06 05:42:34;;;;;;;1.58;0.22;;;;;;;8.31;80.13;98682.19;5004381;28;20061;-61
2022/02/06 05:45:00;;;;;;;4.18;0.75;;;;;;;8.34;79.71;98679.53;5004569;28;20045;-61
2022/02/06 05:47:27;;;;;;;2.75;0.57;;;;;;;8.31;80.66;98669.28;5003103;28;20747;-62
2022/02/06 05:49:54;;;;;;;3.22;1.05;;;;;;;8.33;80.63;98672.66;5005956;28;20046;-61
2022/02/06 05:52:22;;;;;;;0.70;0.35;;;;;;;8.32;79.85;98655.50;5001583;28;20088;-63
2022/02/06 05:54:49;;;;;;;1.88;0.38;;;;;;;8.33;79.84;98652.91;5006141;28;20100;-60
2022/02/06 05:57:16;;;;;;;2.08;0.63;;;;;;;8.35;79.97;98645.13;5001858;28;20053;-62
2022/02/06 05:59:42;;;;;;;3.10;0.50;;;;;;;8.36;79.80;98652.84;5005124;28;20104;-61
2022/02/06 06:02:09;;;;;;;2.33;0.73;;;;;;;8.36;80.95;98637.38;5006182;28;20065;-62
2022/02/06 06:04:36;;;;;;;1.35;0.45;;;;;;;8.35;80.19;98634.81;5003636;28;20084;-60
2022/02/06 06:07:03;;;;;;;4.30;0.80;;;;;;;8.33;80.96;98621.06;5006961;28;20529;-62
2022/02/06 06:09:30;;;;;;;1.60;0.60;;;;;;;8.36;80.13;98626.19;5006631;28;20096;-61
2022/02/06 06:11:56;;;;;;;5.07;0.60;;;;;;;8.33;80.46;98610.75;5010385;28;20054;-61
2022/02/06 06:14:29;;;;;;;3.17;0.80;;;;;;;8.35;80.39;98612.44;5006931;28;20108;-62
2022/02/06 06:16:57;;;;;;;4.32;0.65;;;;;;;8.36;80.60;98601.25;5005660;28;20037;-61
2022/02/06 06:19:24;;;;;;;4.57;0.70;;;;;;;8.36;80.40;98602.97;5009478;28;20127;-61
2022/02/06 06:21:56;;;;;;;2.33;0.80;;;;;;;8.37;80.49;98607.25;5006624;28;20054;-60
2022/02/06 06:24:25;;;;;;;2.53;0.73;;;;;;;8.35;80.98;98589.22;5009525;28;20050;-63
2022/02/06 06:26:53;;;;;;;3.35;0.63;;;;;;;8.39;80.27;98584.88;5003601;28;20054;-60
2022/02/06 06:29:20;;;;;;;3.58;0.95;;;;;;;8.40;80.08;98586.56;5007667;28;20556;-59
2022/02/06 06:31:47;;;;;;;3.47;0.50;;;;;;;8.37;80.30;98581.44;5004210;28;20085;-62
2022/02/06 06:34:14;;;;;;;2.38;1.08;;;;;;;8.40;80.23;98575.38;5009419;28;20049;-63
2022/02/06 06:36:46;;;;;;;3.63;0.80;;;;;;;8.38;80.71;98562.53;5006768;28;20131;-61
2022/02/06 06:39:20;;;;;;;4.25;0.50;;;;;;;8.40;81.23;98576.25;5008640;28;20101;-61
2022/02/06 06:41:57;;;;;;;2.88;0.93;;;;;;;8.37;80.21;98581.44;4988415;28;20513;-61
2022/02/06 06:44:24;;;;;;;2.58;0.57;;;;;;;8.37;81.40;98578.88;4987622;28;20115;-60
2022/02/06 06:46:51;;;;;;;1.20;0.60;;;;;;;8.37;80.49;98565.97;4987469;28;20046;-61
2022/02/06 06:49:17;;;;;;;3.15;0.52;;;;;;;8.36;81.32;98577.16;4988561;28;20053;-63
2022/02/06 06:51:45;;;;;;;1.80;0.52;;;;;;;8.37;80.18;98586.59;4988427;28;20097;-62
2022/02/06 06:54:16;;;;;;;4.18;0.77;;;;;;;8.38;80.94;98596.06;4989038;28;20053;-61
2022/02/06 06:56:52;;;;;;;0.52;0.35;;;;;;;8.39;81.36;98605.50;4986580;28;21170;-60
2022/02/06 07:02:17;;;;;;;0.55;0.20;;;;;;;8.39;80.59;98646.78;4982996;28;20054;-60
2022/02/06 07:04:46;;;;;;;1.38;0.15;;;;;;;8.22;78.51;98668.56;4988456;28;20073;-60
2022/02/06 07:07:13;;;;;;;0.88;0.88;;;;;;;7.94;75.62;98666.34;4985691;28;20364;-62
2022/02/06 07:09:41;;;;;;;0.55;0.45;;;;;;;7.72;75.20;98656.38;4988519;28;20100;-60
2022/02/06 07:12:09;;;;;;;0.20;0.20;;;;;;;7.63;75.39;98651.31;4994183;28;20077;-61
2022/02/06 07:14:36;;;;;;;0.47;0.28;;;;;;;7.49;77.01;98655.81;4986253;28;20054;-62
2022/02/06 07:17:03;;;;;;;0.68;0.47;;;;;;;7.40;76.13;98656.78;4990933;28;20046;-61
2022/02/06 07:19:35;;;;;;;0.30;0.30;;;;;;;7.28;76.51;98660.34;4988026;28;20803;-61
2022/02/06 07:22:02;;;;;;;0.30;0.30;;;;;;;7.23;76.41;98662.13;4988054;28;20046;-61
2022/02/06 07:24:30;;;;;;;0.40;0.40;;;;;;;7.25;76.48;98668.97;4985968;28;20050;-61
2022/02/06 07:27:01;;;;;;;0.30;0.30;;;;;;;7.11;76.44;98669.13;4991972;28;20474;-60
2022/02/06 07:29:28;;;;;;;0.20;0.20;;;;;;;7.10;77.89;98670.00;4990411;28;20040;-59
2022/02/06 07:31:57;;;;;;;0.38;0.13;;;;;;;7.10;77.88;98667.41;4988637;28;20074;-58
2022/02/06 07:34:23;;;;;;;0.63;0.30;;;;;;;7.09;76.72;98676.00;4991271;28;20499;-61
2022/02/06 07:36:50;;;;;;;1.27;0.22;;;;;;;7.06;77.60;98676.88;4990475;28;20066;-60
2022/02/06 07:39:16;;;;;;;0.45;0.43;;;;;;;7.06;77.15;98691.50;4989555;28;20112;-60
2022/02/06 07:41:43;;;;;;;0.40;0.22;;;;;;;7.04;77.98;98695.78;4988675;28;20129;-61
2022/02/06 07:44:10;;;;;;;0.47;0.47;;;;;;;7.05;78.19;98692.34;5004655;28;20054;-59
2022/02/06 07:46:43;;;;;;;1.00;0.57;;;;;;;7.08;77.25;98705.19;5009243;28;20049;-61
2022/02/06 07:49:10;;;;;;;0.30;0.30;;;;;;;7.07;77.70;98706.06;5011774;28;20100;-61
2022/02/06 07:51:39;;;;;;;0.75;0.28;;;;;;;7.08;77.29;98710.34;5007371;28;20096;-58
2022/02/06 07:54:06;;;;;;;0.22;0.22;;;;;;;7.00;77.47;98713.00;5011511;28;21185;-60
2022/02/06 07:56:33;;;;;;;0.22;0.22;;;;;;;7.07;77.85;98724.09;5010265;28;20506;-61
2022/02/06 07:59:00;;;;;;;0.25;0.25;;;;;;;7.08;78.30;98733.50;5003404;28;20050;-61
2022/02/06 08:01:27;;;;;;;2.65;0.55;;;;;;;7.09;76.93;98724.91;5000582;28;20049;-62
2022/02/06 08:03:53;;;;;;;0.30;0.30;;;;;;;7.07;77.58;98729.25;5004216;28;20084;-61
2022/02/06 08:06:20;;;;;;;0.43;0.43;;;;;;;7.09;77.84;98727.47;5001943;28;20155;-61
2022/02/06 08:08:46;;;;;;;0.38;0.38;;;;;;;7.11;77.25;98736.06;4998167;28;20054;-59
2022/02/06 08:11:15;;;;;;;0.90;0.32;;;;;;;7.10;77.24;98724.06;5001509;28;20093;-60
2022/02/06 08:13:45;;;;;;;0.20;0.20;;;;;;;7.04;77.15;98730.13;5003668;28;20133;-60
2022/02/06 08:16:12;;;;;;;0.65;0.30;;;;;;;7.07;77.53;98745.53;5001387;28;20058;-60
2022/02/06 08:18:40;;;;;;;2.80;1.75;;;;;;;7.05;77.73;98736.09;5003848;28;20434;-61
2022/02/06 08:21:08;;;;;;;2.58;0.70;;;;;;;7.07;77.58;98734.38;5002906;28;20730;-61
2022/02/06 08:23:44;;;;;;;0.63;0.15;;;;;;;7.04;77.55;98734.41;5001684;28;20061;-60
2022/02/06 08:26:11;;;;;;;0.28;0.28;;;;;;;7.06;77.83;98748.97;5002507;28;20121;-58
2022/02/06 08:28:39;;;;;;;0.30;0.30;;;;;;;7.03;78.36;98743.00;5002302;28;20057;-61
2022/02/06 08:31:05;;;;;;;1.05;0.28;;;;;;;7.02;77.55;98746.44;5001260;28;20706;-60
2022/02/06 08:33:32;;;;;;;0.55;0.55;;;;;;;6.92;78.94;98746.53;5001206;28;20544;-59
2022/02/06 08:36:00;;;;;;;0.20;0.20;;;;;;;6.94;77.69;98746.50;4999837;28;20042;-60
2022/02/06 08:38:28;;;;;;;0.52;0.40;;;;;;;6.94;77.36;98744.81;5002125;28;20061;-61
2022/02/06 08:40:55;;;;;;;0.47;0.47;;;;;;;6.88;78.17;98744.84;5001848;28;20057;-60
2022/02/06 08:43:21;;;;;;;0.70;0.43;;;;;;;6.92;77.07;98754.25;4999188;28;20049;-60
2022/02/06 08:45:48;;;;;;;0.43;0.30;;;;;;;6.90;77.98;98758.56;5001668;28;20096;-58
2022/02/06 08:48:16;;;;;;;0.65;0.65;;;;;;;6.89;77.02;98762.00;4998202;28;20096;-61
2022/02/06 08:50:43;;;;;;;0.43;0.40;;;;;;;6.86;77.16;98756.84;5000190;28;20718;-58
2022/02/06 08:53:10;;;;;;;0.38;0.38;;;;;;;6.88;76.96;98760.28;4995982;28;20077;-61
2022/02/06 08:55:37;;;;;;;1.08;0.55;;;;;;;6.86;76.98;98767.16;4999677;28;20116;-61
2022/02/06 08:58:04;;;;;;;0.50;0.25;;;;;;;6.88;76.96;98775.72;5001008;28;20073;-59
2022/02/06 09:00:31;;;;;;;0.40;0.20;;;;;;;6.91;76.49;98777.44;4999074;28;20077;-60
2022/02/06 09:02:58;;;;;;;1.30;0.52;;;;;;;6.96;77.83;98769.66;5004499;28;20074;-59
2022/02/06 09:05:26;;;;;;;2.35;0.47;;;;;;;7.00;77.22;98779.06;5000928;28;20053;-59
2022/02/06 09:07:53;;;;;;;1.08;0.40;;;;;;;7.01;76.63;98786.78;4995032;28;20049;-60
2022/02/06 09:10:21;;;;;;;0.28;0.25;;;;;;;7.03;76.07;98799.66;4999837;28;20115;-60
2022/02/06 09:12:53;;;;;;;0.45;0.30;;;;;;;6.98;76.82;98791.94;5001237;28;20046;-62
2022/02/06 09:15:21;;;;;;;0.82;0.30;;;;;;;6.87;76.74;98804.91;5005328;28;20062;-61
2022/02/06 09:17:49;;;;;;;1.27;0.20;;;;;;;6.85;75.35;98824.66;5000744;28;20957;-60
2022/02/06 09:20:16;;;;;;;0.95;0.93;;;;;;;6.81;76.01;98810.97;5005372;28;20377;-60
2022/02/06 09:22:43;;;;;;;2.05;0.57;;;;;;;6.70;75.45;98776.72;5001254;28;20044;-60
2022/02/06 09:25:12;;;;;;;0.50;0.47;;;;;;;6.64;74.24;98777.63;4999811;28;20678;-60
2022/02/06 09:27:40;;;;;;;0.47;0.30;;;;;;;6.56;73.36;98792.28;5005853;28;20154;-62
2022/02/06 09:30:10;;;;;;;0.88;0.65;;;;;;;6.53;72.85;98797.44;5002986;28;20490;-61
2022/02/06 09:35:13;;;;;;;0.85;0.20;;;;;;;6.49;73.86;98808.59;5059483;28;20958;-60
2022/02/06 09:37:39;;;;;;;1.90;0.85;;;;;;;6.52;74.68;98818.88;5056721;28;20041;-59
2022/02/06 09:40:09;;;;;;;1.98;0.95;;;;;;;6.53;74.88;98811.16;5037514;28;20103;-62
2022/02/06 09:42:37;;;;;;;2.70;1.38;;;;;;;6.55;73.62;98809.41;5041725;28;20076;-59
2022/02/06 09:45:05;;;;;;;6.70;1.55;;;;;;;6.57;75.34;98827.41;5039651;28;20134;-60
2022/02/06 09:47:32;;;;;;;3.03;2.03;;;;;;;6.61;74.87;98828.25;5040378;28;20057;-57
2022/02/06 09:49:59;;;;;;;1.90;1.33;;;;;;;6.72;73.41;98841.06;5041749;28;20048;-61
2022/02/06 09:52:28;;;;;;;2.28;1.40;;;;;;;6.78;73.54;98847.00;5036531;28;20059;-58
2022/02/06 09:55:02;;;;;;;6.32;3.33;;;;;;;6.96;74.71;98844.31;5045157;28;20116;-58
2022/02/06 09:57:31;;;;;;;4.68;2.40;;;;;;;7.39;74.05;98846.53;5045511;28;20772;-60
2022/02/06 10:00:00;;;;;;;3.33;1.48;;;;;;;8.32;73.21;98854.16;5047397;28;20052;-60
2022/02/06 10:02:30;;;;;;;2.60;1.45;;;;;;;9.34;72.03;98853.53;5036818;28;20057;-57
2022/02/06 10:04:58;;;;;;;3.35;1.58;;;;;;;10.38;70.21;98854.19;5047618;28;20045;-60
2022/02/06 10:07:29;;;;;;;8.43;2.58;;;;;;;11.31;68.13;98848.63;5040789;28;20079;-58
2022/02/06 10:10:04;;;;;;;3.92;1.48;;;;;;;12.11;66.33;98856.09;5052716;28;20874;-60
2022/02/06 10:12:36;;;;;;;4.13;1.65;;;;;;;12.60;63.72;98849.47;5057061;28;20048;-59
2022/02/06 10:15:05;;;;;;;6.30;1.67;;;;;;;12.72;60.01;98842.19;5062838;28;20045;-59
2022/02/06 10:17:35;;;;;;;1.90;1.52;;;;;;;12.96;61.33;98850.13;5056374;28;20048;-59
2022/02/06 10:20:13;;;;;;;2.53;1.23;;;;;;;12.49;58.01;98845.50;5056032;28;20053;-61
2022/02/06 10:22:59;;;;;;;3.03;1.67;;;;;;;12.08;59.14;98846.66;5068863;28;20094;-59
2022/02/06 10:25:26;;;;;;;1.63;1.17;;;;;;;11.36;59.21;98820.00;5057277;28;20041;-57
2022/02/06 10:28:21;;;;;;;5.47;1.55;;;;;;;10.93;60.63;98824.50;5066817;28;20097;-59
2022/02/06 10:30:52;;;;;;;4.82;1.83;;;;;;;10.63;60.63;98835.56;5057543;28;20512;-61
2022/02/06 10:33:21;;;;;;;3.55;2.17;;;;;;;11.04;62.44;98838.06;5059204;28;20554;-59
2022/02/06 10:35:53;;;;;;;2.88;1.27;;;;;;;11.67;61.10;98841.69;5054824;28;20052;-58
2022/02/06 10:38:26;;;;;;;2.25;1.55;;;;;;;11.75;58.56;98805.19;5054082;28;20041;-60
2022/02/06 10:41:12;;;;;;;2.90;1.40;;;;;;;11.92;57.19;98818.50;5061397;28;20504;-62
2022/02/06 10:44:04;;;;;;;2.03;1.67;;;;;;;11.73;57.04;98831.16;5056042;28;20052;-60
2022/02/06 10:46:33;;;;;;;1.23;1.02;;;;;;;11.85;58.07;98824.75;5045958;28;20554;-57
2022/02/06 10:49:03;;;;;;;1.80;0.75;;;;;;;11.67;57.02;98841.69;5048330;28;20452;-60
2022/02/06 10:51:43;;;;;;;3.42;1.42;;;;;;;11.73;57.77;98849.31;5048591;28;20110;-57
2022/02/06 10:54:15;;;;;;;2.05;1.77;;;;;;;11.91;57.91;98839.31;5048587;28;20048;-60
2022/02/06 10:57:03;;;;;;;4.10;0.50;;;;;;;11.92;57.16;98841.03;5043289;28;20448;-59
2022/02/06 10:59:53;;;;;;;3.95;1.23;;;;;;;11.71;57.36;98827.75;5046347;28;20056;-59
2022/02/06 11:02:25;;;;;;;4.85;1.35;;;;;;;11.36;58.49;98816.56;5044125;28;20158;-62
2022/02/06 11:05:16;;;;;;;4.00;1.10;;;;;;;11.05;57.36;98824.22;5035952;28;20096;-59
2022/02/06 11:08:02;;;;;;;5.07;1.45;;;;;;;10.81;58.71;98836.03;5043195;28;20106;-58
2022/02/06 11:10:32;;;;;;;2.53;1.55;;;;;;;10.67;59.05;98849.28;5040090;28;20088;-59
2022/02/06 11:13:03;;;;;;;;;;;;;;;10.38;59.23;98840.38;5053197;28;20496;-61
2022/02/06 11:15:33;;;;;;;1.55;1.02;;;;;;;10.29;61.15;98850.06;5042585;28;19924;-60
2022/02/06 11:18:12;;;;;;;2.47;1.40;;;;;;;10.09;60.49;98847.00;5049329;28;20092;-62
2022/02/06 11:20:54;;;;;;;1.13;0.98;;;;;;;9.86;61.10;98856.94;5045974;28;20131;-58
2022/02/06 11:23:21;;;;;;;4.00;1.67;;;;;;;9.67;61.45;98853.84;5044088;28;20052;-59
2022/02/06 11:25:51;;;;;;;3.17;1.58;;;;;;;9.57;61.80;98855.75;5046343;28;20049;-60
2022/02/06 11:28:19;;;;;;;3.53;0.93;;;;;;;9.38;62.09;98852.59;5037495;28;20045;-62
2022/02/06 11:30:45;;;;;;;1.98;1.23;;;;;;;9.24;62.59;98848.53;5055004;28;20052;-60
2022/02/06 11:33:13;;;;;;;2.13;1.55;;;;;;;8.99;63.25;98859.25;5035290;28;20044;-60
2022/02/06 11:35:44;;;;;;;5.43;1.45;;;;;;;8.82;63.37;98872.41;5045876;28;20044;-58
2022/02/06 11:44:18;;;;;;;3.25;1.00;;;;;;;8.63;64.73;98865.81;5050307;28;20098;-60
2022/02/06 11:46:58;;;;;;;2.03;1.05;;;;;;;8.56;64.81;98870.22;5042305;28;20072;-60
2022/02/06 11:49:25;;;;;;;7.93;1.55;;;;;;;8.55;65.37;98868.50;5045351;28;20536;-61
2022/02/06 11:51:56;;;;;;;3.25;1.52;;;;;;;8.56;65.51;98846.97;5040924;28;20122;-62
2022/02/06 11:54:35;;;;;;;5.70;1.50;;;;;;;8.56;65.46;98849.56;5045611;28;20135;-60
2022/02/06 11:57:25;;;;;;;9.40;3.15;;;;;;;8.47;65.78;98841.03;5043771;28;20049;-58
2022/02/06 12:00:13;;;;;;;6.47;2.88;;;;;;;8.55;66.25;98842.69;5044037;28;20044;-60
2022/02/06 12:02:43;;;;;;;7.15;1.95;;;;;;;8.62;65.61;98828.84;5047163;28;20044;-61
2022/02/06 12:05:20;;;;;;;5.82;1.90;;;;;;;8.64;65.59;98842.56;5042339;28;20045;-57
2022/02/06 12:08:01;;;;;;;3.75;1.42;;;;;;;8.65;65.70;98846.84;5041938;28;20128;-61
2022/02/06 12:11:07;;;;;;;3.58;1.35;;;;;;;8.67;65.70;98839.94;5052293;28;20066;-61
2022/02/06 12:13:34;;;;;;;2.90;1.02;;;;;;;8.68;65.18;98849.38;5042401;28;20370;-58
2022/02/06 12:16:04;;;;;;;7.88;2.53;;;;;;;8.71;65.50;98844.19;5044662;28;20056;-60
2022/02/06 12:18:35;;;;;;;4.20;1.63;;;;;;;8.82;65.41;98858.66;5045418;28;20072;-61
2022/02/06 12:21:21;;;;;;;3.95;0.63;;;;;;;8.98;63.92;98849.81;5044777;28;20640;-59
2022/02/06 12:23:55;;;;;;;0.77;0.77;;;;;;;9.07;63.72;98829.88;5047128;28;20466;-59
2022/02/06 12:26:37;;;;;;;1.35;1.25;;;;;;;9.04;62.51;98829.91;5044211;28;20052;-60
2022/02/06 12:29:26;;;;;;;1.60;0.95;;;;;;;9.02;62.74;98836.84;5044532;28;20131;-58
2022/02/06 12:32:00;;;;;;;1.40;0.88;;;;;;;8.95;62.23;98826.59;5043030;28;20128;-58
2022/02/06 12:37:06;;;;;;;4.47;1.65;;;;;;;8.98;62.76;98816.22;5044588;28;20052;-61
2022/02/06 12:37:31;;;;;;;2.97;1.15;;;;;;;8.97;62.89;98834.34;5046077;28;20041;-57
2022/02/06 12:40:01;;;;;;;2.30;1.33;;;;;;;8.91;63.10;98819.78;5045496;28;20689;-60
2022/02/06 12:42:30;;;;;;;;;;;;;;;8.80;63.33;98822.53;5047750;28;20099;-59
2022/02/06 12:44:58;;;;;;;2.88;1.27;;;;;;;8.76;62.67;98818.31;5042582;28;19995;-60
2022/02/06 12:47:26;;;;;;;3.40;1.13;;;;;;;8.75;62.98;98803.69;5048825;28;20519;-59
2022/02/06 12:49:53;;;;;;;2.15;1.10;;;;;;;8.80;63.18;98801.88;5043867;28;20036;-59
2022/02/06 12:52:20;;;;;;;1.98;0.93;;;;;;;8.84;63.19;98792.34;5048844;28;20135;-60
2022/02/06 12:54:47;;;;;;;5.28;1.45;;;;;;;8.70;62.87;98790.84;5044307;28;20117;-57
2022/02/06 12:57:20;;;;;;;2.22;1.60;;;;;;;8.66;62.26;98799.53;5044958;28;20118;-60
2022/02/06 12:59:48;;;;;;;4.35;1.38;;;;;;;8.60;63.20;98784.13;5046130;28;20106;-58
2022/02/06 13:02:21;;;;;;;0.95;0.88;;;;;;;8.52;63.08;98785.94;5045597;28;20080;-60
2022/02/06 13:05:09;;;;;;;4.70;1.20;;;;;;;8.47;63.50;98783.41;5049800;28;20052;-60
2022/02/06 13:07:45;;;;;;;5.63;1.00;;;;;;;8.51;63.38;98794.56;5037560;28;20064;-60
2022/02/06 13:10:14;;;;;;;2.63;1.77;;;;;;;8.47;63.50;98802.34;5046392;28;20111;-60
2022/02/06 13:12:51;;;;;;;3.03;1.40;;;;;;;8.45;62.97;98800.66;5042944;28;20146;-59
2022/02/06 13:15:45;;;;;;;1.25;1.15;;;;;;;8.45;63.45;98822.13;5045588;28;20067;-60
2022/02/06 13:18:23;;;;;;;5.38;0.50;;;;;;;8.53;62.66;98828.91;5035775;28;20726;-59
2022/02/06 13:21:11;;;;;;;3.90;1.40;;;;;;;8.57;62.28;98815.13;5034702;28;20076;-61
2022/02/06 13:24:04;;;;;;;5.28;1.33;;;;;;;8.74;62.61;98831.22;5036539;28;20057;-60
2022/02/06 13:26:58;;;;;;;4.40;1.20;;;;;;;8.93;62.27;98828.38;5037292;28;20046;-58
2022/02/06 13:29:36;;;;;;;3.58;1.23;;;;;;;8.95;62.12;98798.19;5038506;28;20098;-60
2022/02/06 13:32:14;;;;;;;2.30;1.33;;;;;;;8.80;61.73;98816.50;5040654;28;20061;-60
2022/02/06 13:35:02;;;;;;;2.70;1.23;;;;;;;8.64;61.54;98801.25;5038846;28;20501;-60
2022/02/06 13:37:41;;;;;;;1.52;1.05;;;;;;;8.54;62.23;98804.88;5040541;28;20547;-59
2022/02/06 13:40:14;;;;;;;2.65;1.00;;;;;;;8.43;61.70;98823.03;5043807;28;20045;-59
2022/02/06 13:43:16;;;;;;;4.03;1.85;;;;;;;8.43;63.34;98829.06;5040758;28;20657;-58